sensor_id;sensor_type;location;lat;lon;timestamp;P1;durP1;ratioP1;P2;durP2;ratioP2
47529;SDS011;33272;51.922;7.730;2023-03-24T00:01:52;6.77;;;2.63;;
47529;SDS011;33272;51.922;7.730;2023-03-24T00:04:20;3.93;;;2.30;;
47529;SDS011;33272;51.922;7.730;2023-03-24T00:06:49;3.93;;;2.43;;
47529;SDS011;33272;51.922;7.730;2023-03-24T00:09:18;3.57;;;1.90;;
47529;SDS011;33272;51.922;7.730;2023-03-24T00:11:45;2.20;;;1.87;;
47529;SDS011;33272;51.922;7.730;2023-03-24T00:14:12;4.80;;;1.90;;
47529;SDS011;33272;51.922;7.730;2023-03-24T00:16:39;4.23;;;2.00;;
47529;SDS011;33272;51.922;7.730;2023-03-24T00:19:09;3.00;;;1.80;;
47529;SDS011;33272;51.922;7.730;2023-03-24T00:21:39;3.03;;;2.17;;
47529;SDS011;33272;51.922;7.730;2023-03-24T00:24:07;4.87;;;2.17;;
47529;SDS011;33272;51.922;7.730;2023-03-24T00:26:37;2.87;;;1.97;;
47529;SDS011;33272;51.922;7.730;2023-03-24T00:29:06;3.17;;;2.03;;
47529;SDS011;33272;51.922;7.730;2023-03-24T00:31:36;4.90;;;2.33;;
47529;SDS011;33272;51.922;7.730;2023-03-24T00:34:04;3.90;;;2.17;;
47529;SDS011;33272;51.922;7.730;2023-03-24T00:36:34;3.03;;;2.03;;
47529;SDS011;33272;51.922;7.730;2023-03-24T00:39:02;3.87;;;2.30;;
47529;SDS011;33272;51.922;7.730;2023-03-24T00:41:31;4.37;;;2.53;;
47529;SDS011;33272;51.922;7.730;2023-03-24T00:43:59;3.97;;;2.37;;
47529;SDS011;33272;51.922;7.730;2023-03-24T00:46:30;2.97;;;2.30;;
47529;SDS011;33272;51.922;7.730;2023-03-24T00:48:59;5.13;;;2.77;;
47529;SDS011;33272;51.922;7.730;2023-03-24T00:51:30;4.07;;;2.30;;
47529;SDS011;33272;51.922;7.730;2023-03-24T00:54:00;3.93;;;2.40;;
47529;SDS011;33272;51.922;7.730;2023-03-24T00:56:28;3.70;;;2.30;;
47529;SDS011;33272;51.922;7.730;2023-03-24T00:58:58;3.90;;;2.20;;
47529;SDS011;33272;51.922;7.730;2023-03-24T01:01:26;3.83;;;2.20;;
47529;SDS011;33272;51.922;7.730;2023-03-24T01:03:57;2.90;;;2.10;;
47529;SDS011;33272;51.922;7.730;2023-03-24T01:06:24;5.43;;;2.30;;
47529;SDS011;33272;51.922;7.730;2023-03-24T01:08:53;7.20;;;2.70;;
47529;SDS011;33272;51.922;7.730;2023-03-24T01:11:21;3.97;;;2.30;;
47529;SDS011;33272;51.922;7.730;2023-03-24T01:13:51;3.40;;;1.90;;
47529;SDS011;33272;51.922;7.730;2023-03-24T01:16:19;3.03;;;1.70;;
47529;SDS011;33272;51.922;7.730;2023-03-24T01:18:49;4.57;;;2.03;;
47529;SDS011;33272;51.922;7.730;2023-03-24T01:21:16;3.53;;;2.63;;
47529;SDS011;33272;51.922;7.730;2023-03-24T01:23:44;4.37;;;2.60;;
47529;SDS011;33272;51.922;7.730;2023-03-24T01:26:13;4.87;;;2.03;;
47529;SDS011;33272;51.922;7.730;2023-03-24T01:28:40;3.23;;;2.00;;
47529;SDS011;33272;51.922;7.730;2023-03-24T01:31:08;2.90;;;2.10;;
47529;SDS011;33272;51.922;7.730;2023-03-24T01:33:36;3.17;;;1.87;;
47529;SDS011;33272;51.922;7.730;2023-03-24T01:36:04;4.20;;;2.47;;
47529;SDS011;33272;51.922;7.730;2023-03-24T01:38:32;3.83;;;2.63;;
47529;SDS011;33272;51.922;7.730;2023-03-24T01:41:00;3.20;;;2.13;;
47529;SDS011;33272;51.922;7.730;2023-03-24T01:43:30;2.90;;;2.23;;
47529;SDS011;33272;51.922;7.730;2023-03-24T01:46:01;2.70;;;2.13;;
47529;SDS011;33272;51.922;7.730;2023-03-24T01:48:51;6.13;;;2.60;;
47529;SDS011;33272;51.922;7.730;2023-03-24T01:51:23;2.67;;;2.07;;
47529;SDS011;33272;51.922;7.730;2023-03-24T01:53:55;3.00;;;2.10;;
47529;SDS011;33272;51.922;7.730;2023-03-24T01:56:26;3.60;;;1.90;;
47529;SDS011;33272;51.922;7.730;2023-03-24T01:59:00;3.93;;;2.33;;
47529;SDS011;33272;51.922;7.730;2023-03-24T02:01:32;3.00;;;1.63;;
47529;SDS011;33272;51.922;7.730;2023-03-24T02:04:00;2.83;;;1.90;;
47529;SDS011;33272;51.922;7.730;2023-03-24T02:06:32;4.20;;;1.90;;
47529;SDS011;33272;51.922;7.730;2023-03-24T02:09:05;4.47;;;2.20;;
47529;SDS011;33272;51.922;7.730;2023-03-24T02:11:34;2.67;;;2.03;;
47529;SDS011;33272;51.922;7.730;2023-03-24T02:14:05;2.67;;;1.73;;
47529;SDS011;33272;51.922;7.730;2023-03-24T02:16:37;4.53;;;1.87;;
47529;SDS011;33272;51.922;7.730;2023-03-24T02:22:55;2.93;;;2.00;;
47529;SDS011;33272;51.922;7.730;2023-03-24T02:29:13;3.10;;;1.93;;
47529;SDS011;33272;51.922;7.730;2023-03-24T02:38:34;3.70;;;2.10;;
47529;SDS011;33272;51.922;7.730;2023-03-24T02:41:41;3.30;;;2.30;;
47529;SDS011;33272;51.922;7.730;2023-03-24T02:44:19;2.93;;;2.07;;
47529;SDS011;33272;51.922;7.730;2023-03-24T02:46:55;3.60;;;2.23;;
47529;SDS011;33272;51.922;7.730;2023-03-24T02:49:29;3.63;;;2.40;;
47529;SDS011;33272;51.922;7.730;2023-03-24T02:52:05;3.93;;;1.83;;
47529;SDS011;33272;51.922;7.730;2023-03-24T02:54:45;3.70;;;2.10;;
47529;SDS011;33272;51.922;7.730;2023-03-24T02:57:17;2.27;;;2.07;;
47529;SDS011;33272;51.922;7.730;2023-03-24T02:59:49;4.60;;;2.10;;
47529;SDS011;33272;51.922;7.730;2023-03-24T03:02:22;2.83;;;1.93;;
47529;SDS011;33272;51.922;7.730;2023-03-24T03:04:55;2.67;;;2.07;;
47529;SDS011;33272;51.922;7.730;2023-03-24T03:07:29;2.40;;;2.00;;
47529;SDS011;33272;51.922;7.730;2023-03-24T03:10:03;3.00;;;2.40;;
47529;SDS011;33272;51.922;7.730;2023-03-24T03:12:39;2.67;;;2.17;;
47529;SDS011;33272;51.922;7.730;2023-03-24T03:15:11;5.17;;;2.47;;
47529;SDS011;33272;51.922;7.730;2023-03-24T03:17:43;5.53;;;2.27;;
47529;SDS011;33272;51.922;7.730;2023-03-24T03:20:18;4.03;;;2.87;;
47529;SDS011;33272;51.922;7.730;2023-03-24T03:22:49;3.70;;;2.87;;
47529;SDS011;33272;51.922;7.730;2023-03-24T03:25:23;4.13;;;2.67;;
47529;SDS011;33272;51.922;7.730;2023-03-24T03:27:56;3.40;;;2.67;;
47529;SDS011;33272;51.922;7.730;2023-03-24T03:30:28;3.10;;;2.40;;
47529;SDS011;33272;51.922;7.730;2023-03-24T03:33:03;3.90;;;2.50;;
47529;SDS011;33272;51.922;7.730;2023-03-24T03:35:34;4.93;;;2.60;;
47529;SDS011;33272;51.922;7.730;2023-03-24T03:38:08;5.90;;;2.63;;
47529;SDS011;33272;51.922;7.730;2023-03-24T03:40:48;4.23;;;2.93;;
47529;SDS011;33272;51.922;7.730;2023-03-24T03:43:18;2.97;;;1.93;;
47529;SDS011;33272;51.922;7.730;2023-03-24T03:45:45;3.23;;;2.27;;
47529;SDS011;33272;51.922;7.730;2023-03-24T03:48:12;2.53;;;2.33;;
47529;SDS011;33272;51.922;7.730;2023-03-24T03:50:42;2.93;;;2.33;;
47529;SDS011;33272;51.922;7.730;2023-03-24T03:53:10;3.67;;;2.60;;
47529;SDS011;33272;51.922;7.730;2023-03-24T03:55:39;2.80;;;2.40;;
47529;SDS011;33272;51.922;7.730;2023-03-24T03:58:08;3.10;;;2.50;;
47529;SDS011;33272;51.922;7.730;2023-03-24T04:00:35;2.33;;;2.10;;
47529;SDS011;33272;51.922;7.730;2023-03-24T04:03:11;3.17;;;2.20;;
47529;SDS011;33272;51.922;7.730;2023-03-24T04:05:58;2.70;;;2.23;;
47529;SDS011;33272;51.922;7.730;2023-03-24T04:08:35;3.00;;;2.27;;
47529;SDS011;33272;51.922;7.730;2023-03-24T04:14:28;2.60;;;2.40;;
47529;SDS011;33272;51.922;7.730;2023-03-24T04:17:15;5.20;;;2.50;;
47529;SDS011;33272;51.922;7.730;2023-03-24T04:20:00;2.93;;;2.63;;
47529;SDS011;33272;51.922;7.730;2023-03-24T04:22:38;3.40;;;3.07;;
47529;SDS011;33272;51.922;7.730;2023-03-24T04:25:24;4.57;;;2.80;;
47529;SDS011;33272;51.922;7.730;2023-03-24T04:27:59;3.67;;;2.80;;
47529;SDS011;33272;51.922;7.730;2023-03-24T04:30:37;2.97;;;2.63;;
47529;SDS011;33272;51.922;7.730;2023-03-24T04:33:11;3.57;;;2.80;;
47529;SDS011;33272;51.922;7.730;2023-03-24T04:35:46;4.03;;;3.17;;
47529;SDS011;33272;51.922;7.730;2023-03-24T04:38:21;3.60;;;2.93;;
47529;SDS011;33272;51.922;7.730;2023-03-24T04:40:53;2.83;;;2.53;;
47529;SDS011;33272;51.922;7.730;2023-03-24T04:43:22;3.30;;;2.90;;
47529;SDS011;33272;51.922;7.730;2023-03-24T04:46:02;4.93;;;2.90;;
47529;SDS011;33272;51.922;7.730;2023-03-24T04:48:32;5.70;;;2.90;;
47529;SDS011;33272;51.922;7.730;2023-03-24T04:51:00;3.67;;;2.80;;
47529;SDS011;33272;51.922;7.730;2023-03-24T04:53:29;3.07;;;2.70;;
47529;SDS011;33272;51.922;7.730;2023-03-24T04:55:58;3.30;;;2.83;;
47529;SDS011;33272;51.922;7.730;2023-03-24T04:58:32;2.67;;;2.47;;
47529;SDS011;33272;51.922;7.730;2023-03-24T05:00:59;4.13;;;2.60;;
47529;SDS011;33272;51.922;7.730;2023-03-24T05:03:29;4.10;;;2.90;;
47529;SDS011;33272;51.922;7.730;2023-03-24T05:06:02;3.17;;;2.77;;
47529;SDS011;33272;51.922;7.730;2023-03-24T05:08:30;3.90;;;3.43;;
47529;SDS011;33272;51.922;7.730;2023-03-24T05:10:58;4.10;;;3.70;;
47529;SDS011;33272;51.922;7.730;2023-03-24T05:13:25;4.57;;;3.83;;
47529;SDS011;33272;51.922;7.730;2023-03-24T05:15:52;4.07;;;3.67;;
47529;SDS011;33272;51.922;7.730;2023-03-24T05:18:21;6.20;;;4.10;;
47529;SDS011;33272;51.922;7.730;2023-03-24T05:20:48;3.97;;;3.40;;
47529;SDS011;33272;51.922;7.730;2023-03-24T05:23:15;5.03;;;3.70;;
47529;SDS011;33272;51.922;7.730;2023-03-24T05:25:44;4.40;;;3.57;;
47529;SDS011;33272;51.922;7.730;2023-03-24T05:28:11;3.60;;;3.30;;
47529;SDS011;33272;51.922;7.730;2023-03-24T05:30:38;3.40;;;3.10;;
47529;SDS011;33272;51.922;7.730;2023-03-24T05:33:05;3.57;;;2.90;;
47529;SDS011;33272;51.922;7.730;2023-03-24T05:35:34;3.37;;;2.53;;
47529;SDS011;33272;51.922;7.730;2023-03-24T05:38:01;3.20;;;1.90;;
47529;SDS011;33272;51.922;7.730;2023-03-24T05:40:28;1.87;;;1.53;;
47529;SDS011;33272;51.922;7.730;2023-03-24T05:42:55;1.53;;;1.30;;
47529;SDS011;33272;51.922;7.730;2023-03-24T05:45:22;3.47;;;1.30;;
47529;SDS011;33272;51.922;7.730;2023-03-24T05:47:49;3.23;;;1.10;;
47529;SDS011;33272;51.922;7.730;2023-03-24T05:50:17;1.63;;;1.20;;
47529;SDS011;33272;51.922;7.730;2023-03-24T05:52:45;2.93;;;1.07;;
47529;SDS011;33272;51.922;7.730;2023-03-24T05:55:13;1.00;;;0.90;;
47529;SDS011;33272;51.922;7.730;2023-03-24T05:57:41;1.57;;;0.87;;
47529;SDS011;33272;51.922;7.730;2023-03-24T06:00:08;1.67;;;1.10;;
47529;SDS011;33272;51.922;7.730;2023-03-24T06:02:40;2.40;;;1.23;;
47529;SDS011;33272;51.922;7.730;2023-03-24T06:05:08;1.70;;;1.23;;
47529;SDS011;33272;51.922;7.730;2023-03-24T06:07:35;1.97;;;1.10;;
47529;SDS011;33272;51.922;7.730;2023-03-24T06:10:06;2.10;;;1.10;;
47529;SDS011;33272;51.922;7.730;2023-03-24T06:12:35;2.00;;;1.20;;
47529;SDS011;33272;51.922;7.730;2023-03-24T06:15:03;4.37;;;1.23;;
47529;SDS011;33272;51.922;7.730;2023-03-24T06:17:31;2.40;;;1.20;;
47529;SDS011;33272;51.922;7.730;2023-03-24T06:19:59;3.50;;;1.27;;
47529;SDS011;33272;51.922;7.730;2023-03-24T06:22:30;3.57;;;1.43;;
47529;SDS011;33272;51.922;7.730;2023-03-24T06:24:58;6.07;;;1.57;;
47529;SDS011;33272;51.922;7.730;2023-03-24T06:27:27;3.17;;;1.70;;
47529;SDS011;33272;51.922;7.730;2023-03-24T06:29:55;3.37;;;1.30;;
47529;SDS011;33272;51.922;7.730;2023-03-24T06:32:22;2.77;;;1.40;;
47529;SDS011;33272;51.922;7.730;2023-03-24T06:34:50;3.17;;;1.60;;
47529;SDS011;33272;51.922;7.730;2023-03-24T06:37:17;3.97;;;1.80;;
47529;SDS011;33272;51.922;7.730;2023-03-24T06:39:46;2.77;;;1.70;;
47529;SDS011;33272;51.922;7.730;2023-03-24T06:42:13;4.57;;;2.00;;
47529;SDS011;33272;51.922;7.730;2023-03-24T06:44:43;4.50;;;1.87;;
47529;SDS011;33272;51.922;7.730;2023-03-24T06:47:10;3.40;;;2.10;;
47529;SDS011;33272;51.922;7.730;2023-03-24T06:49:37;5.57;;;2.60;;
47529;SDS011;33272;51.922;7.730;2023-03-24T06:52:05;5.17;;;2.40;;
47529;SDS011;33272;51.922;7.730;2023-03-24T06:54:32;6.83;;;3.07;;
47529;SDS011;33272;51.922;7.730;2023-03-24T06:56:59;6.97;;;3.03;;
47529;SDS011;33272;51.922;7.730;2023-03-24T06:59:26;4.17;;;3.40;;
47529;SDS011;33272;51.922;7.730;2023-03-24T07:01:55;6.60;;;2.90;;
47529;SDS011;33272;51.922;7.730;2023-03-24T07:04:22;8.63;;;3.80;;
47529;SDS011;33272;51.922;7.730;2023-03-24T07:06:49;7.27;;;3.30;;
47529;SDS011;33272;51.922;7.730;2023-03-24T07:09:16;5.43;;;3.03;;
47529;SDS011;33272;51.922;7.730;2023-03-24T07:11:44;5.63;;;2.87;;
47529;SDS011;33272;51.922;7.730;2023-03-24T07:14:11;4.87;;;2.80;;
47529;SDS011;33272;51.922;7.730;2023-03-24T07:16:38;6.27;;;2.77;;
47529;SDS011;33272;51.922;7.730;2023-03-24T07:19:06;7.33;;;2.97;;
47529;SDS011;33272;51.922;7.730;2023-03-24T07:21:33;6.83;;;3.70;;
47529;SDS011;33272;51.922;7.730;2023-03-24T07:24:00;5.50;;;2.67;;
47529;SDS011;33272;51.922;7.730;2023-03-24T07:26:27;6.90;;;3.33;;
47529;SDS011;33272;51.922;7.730;2023-03-24T07:28:54;7.33;;;3.20;;
47529;SDS011;33272;51.922;7.730;2023-03-24T07:31:21;6.40;;;2.80;;
47529;SDS011;33272;51.922;7.730;2023-03-24T07:33:48;6.30;;;2.90;;
47529;SDS011;33272;51.922;7.730;2023-03-24T07:36:17;8.00;;;3.00;;
47529;SDS011;33272;51.922;7.730;2023-03-24T07:38:44;5.77;;;3.23;;
47529;SDS011;33272;51.922;7.730;2023-03-24T07:41:11;6.50;;;2.67;;
47529;SDS011;33272;51.922;7.730;2023-03-24T07:43:38;6.77;;;3.13;;
47529;SDS011;33272;51.922;7.730;2023-03-24T07:46:05;5.07;;;2.70;;
47529;SDS011;33272;51.922;7.730;2023-03-24T07:48:32;7.40;;;2.87;;
47529;SDS011;33272;51.922;7.730;2023-03-24T07:50:59;3.47;;;2.67;;
47529;SDS011;33272;51.922;7.730;2023-03-24T07:53:27;3.83;;;2.57;;
47529;SDS011;33272;51.922;7.730;2023-03-24T07:55:54;7.83;;;3.13;;
47529;SDS011;33272;51.922;7.730;2023-03-24T07:58:21;9.60;;;3.40;;
47529;SDS011;33272;51.922;7.730;2023-03-24T08:00:48;6.00;;;2.77;;
47529;SDS011;33272;51.922;7.730;2023-03-24T08:03:16;7.43;;;2.70;;
47529;SDS011;33272;51.922;7.730;2023-03-24T08:05:43;5.27;;;2.73;;
47529;SDS011;33272;51.922;7.730;2023-03-24T08:08:11;4.97;;;2.47;;
47529;SDS011;33272;51.922;7.730;2023-03-24T08:10:39;6.17;;;2.50;;
47529;SDS011;33272;51.922;7.730;2023-03-24T08:13:06;6.23;;;2.93;;
47529;SDS011;33272;51.922;7.730;2023-03-24T08:15:33;7.77;;;2.90;;
47529;SDS011;33272;51.922;7.730;2023-03-24T08:18:01;6.23;;;2.60;;
47529;SDS011;33272;51.922;7.730;2023-03-24T08:20:29;6.13;;;2.73;;
47529;SDS011;33272;51.922;7.730;2023-03-24T08:22:56;5.30;;;2.43;;
47529;SDS011;33272;51.922;7.730;2023-03-24T08:25:25;5.87;;;2.43;;
47529;SDS011;33272;51.922;7.730;2023-03-24T08:27:53;3.73;;;2.53;;
47529;SDS011;33272;51.922;7.730;2023-03-24T08:30:21;4.60;;;2.53;;
47529;SDS011;33272;51.922;7.730;2023-03-24T08:32:52;5.73;;;2.37;;
47529;SDS011;33272;51.922;7.730;2023-03-24T08:35:22;4.87;;;2.47;;
47529;SDS011;33272;51.922;7.730;2023-03-24T08:37:52;5.00;;;2.20;;
47529;SDS011;33272;51.922;7.730;2023-03-24T08:40:20;6.87;;;2.23;;
47529;SDS011;33272;51.922;7.730;2023-03-24T08:42:49;7.27;;;2.50;;
47529;SDS011;33272;51.922;7.730;2023-03-24T08:45:21;7.60;;;2.20;;
47529;SDS011;33272;51.922;7.730;2023-03-24T08:47:51;6.53;;;1.97;;
47529;SDS011;33272;51.922;7.730;2023-03-24T08:50:20;8.00;;;2.83;;
47529;SDS011;33272;51.922;7.730;2023-03-24T08:53:02;5.77;;;1.97;;
47529;SDS011;33272;51.922;7.730;2023-03-24T08:55:29;7.07;;;2.00;;
47529;SDS011;33272;51.922;7.730;2023-03-24T08:57:57;5.10;;;2.20;;
47529;SDS011;33272;51.922;7.730;2023-03-24T09:00:26;4.37;;;1.83;;
47529;SDS011;33272;51.922;7.730;2023-03-24T09:02:54;5.40;;;1.47;;
47529;SDS011;33272;51.922;7.730;2023-03-24T09:05:22;5.43;;;1.80;;
47529;SDS011;33272;51.922;7.730;2023-03-24T09:07:50;5.33;;;2.03;;
47529;SDS011;33272;51.922;7.730;2023-03-24T09:10:17;7.53;;;2.50;;
47529;SDS011;33272;51.922;7.730;2023-03-24T09:12:46;6.87;;;2.20;;
47529;SDS011;33272;51.922;7.730;2023-03-24T09:15:14;6.30;;;1.87;;
47529;SDS011;33272;51.922;7.730;2023-03-24T09:17:42;6.30;;;2.17;;
47529;SDS011;33272;51.922;7.730;2023-03-24T09:20:10;3.27;;;1.63;;
47529;SDS011;33272;51.922;7.730;2023-03-24T09:22:40;5.97;;;2.23;;
47529;SDS011;33272;51.922;7.730;2023-03-24T09:25:11;4.83;;;1.77;;
47529;SDS011;33272;51.922;7.730;2023-03-24T09:27:41;6.87;;;2.53;;
47529;SDS011;33272;51.922;7.730;2023-03-24T09:30:08;7.80;;;2.27;;
47529;SDS011;33272;51.922;7.730;2023-03-24T09:32:37;6.73;;;2.20;;
47529;SDS011;33272;51.922;7.730;2023-03-24T09:35:06;6.27;;;1.67;;
47529;SDS011;33272;51.922;7.730;2023-03-24T09:37:34;5.40;;;1.83;;
47529;SDS011;33272;51.922;7.730;2023-03-24T09:40:03;5.13;;;2.30;;
47529;SDS011;33272;51.922;7.730;2023-03-24T09:42:33;9.30;;;2.40;;
47529;SDS011;33272;51.922;7.730;2023-03-24T09:45:04;6.43;;;2.07;;
47529;SDS011;33272;51.922;7.730;2023-03-24T09:47:41;5.43;;;1.87;;
47529;SDS011;33272;51.922;7.730;2023-03-24T09:50:17;7.00;;;2.30;;
47529;SDS011;33272;51.922;7.730;2023-03-24T09:52:50;6.67;;;2.10;;
47529;SDS011;33272;51.922;7.730;2023-03-24T09:55:24;6.57;;;1.80;;
47529;SDS011;33272;51.922;7.730;2023-03-24T09:57:54;6.40;;;1.90;;
47529;SDS011;33272;51.922;7.730;2023-03-24T10:00:26;8.00;;;2.23;;
47529;SDS011;33272;51.922;7.730;2023-03-24T10:02:57;6.63;;;2.07;;
47529;SDS011;33272;51.922;7.730;2023-03-24T10:05:32;3.47;;;1.90;;
47529;SDS011;33272;51.922;7.730;2023-03-24T10:08:06;4.57;;;1.80;;
47529;SDS011;33272;51.922;7.730;2023-03-24T10:10:42;6.10;;;2.10;;
47529;SDS011;33272;51.922;7.730;2023-03-24T10:13:23;4.13;;;2.00;;
47529;SDS011;33272;51.922;7.730;2023-03-24T10:15:58;7.83;;;2.50;;
47529;SDS011;33272;51.922;7.730;2023-03-24T10:18:32;4.97;;;1.93;;
47529;SDS011;33272;51.922;7.730;2023-03-24T10:21:11;4.43;;;1.70;;
47529;SDS011;33272;51.922;7.730;2023-03-24T10:23:45;7.67;;;1.80;;
47529;SDS011;33272;51.922;7.730;2023-03-24T10:26:25;5.70;;;2.27;;
47529;SDS011;33272;51.922;7.730;2023-03-24T10:29:04;4.23;;;1.73;;
47529;SDS011;33272;51.922;7.730;2023-03-24T10:31:47;4.13;;;1.73;;
47529;SDS011;33272;51.922;7.730;2023-03-24T10:34:19;5.93;;;1.80;;
47529;SDS011;33272;51.922;7.730;2023-03-24T10:36:52;4.93;;;1.87;;
47529;SDS011;33272;51.922;7.730;2023-03-24T10:39:22;6.17;;;1.90;;
47529;SDS011;33272;51.922;7.730;2023-03-24T10:41:50;4.30;;;1.57;;
47529;SDS011;33272;51.922;7.730;2023-03-24T10:44:19;5.00;;;2.33;;
47529;SDS011;33272;51.922;7.730;2023-03-24T10:46:48;6.43;;;2.27;;
47529;SDS011;33272;51.922;7.730;2023-03-24T10:49:18;6.43;;;1.97;;
47529;SDS011;33272;51.922;7.730;2023-03-24T10:51:48;5.97;;;1.70;;
47529;SDS011;33272;51.922;7.730;2023-03-24T10:54:18;9.03;;;2.00;;
47529;SDS011;33272;51.922;7.730;2023-03-24T10:56:48;5.27;;;2.17;;
47529;SDS011;33272;51.922;7.730;2023-03-24T10:59:21;4.13;;;1.60;;
47529;SDS011;33272;51.922;7.730;2023-03-24T11:02:00;6.33;;;2.00;;
47529;SDS011;33272;51.922;7.730;2023-03-24T11:04:42;6.77;;;2.03;;
47529;SDS011;33272;51.922;7.730;2023-03-24T11:07:16;4.03;;;2.03;;
47529;SDS011;33272;51.922;7.730;2023-03-24T11:09:46;6.40;;;1.90;;
47529;SDS011;33272;51.922;7.730;2023-03-24T11:12:26;3.07;;;1.63;;
47529;SDS011;33272;51.922;7.730;2023-03-24T11:15:00;5.13;;;2.00;;
47529;SDS011;33272;51.922;7.730;2023-03-24T11:17:42;3.40;;;1.80;;
47529;SDS011;33272;51.922;7.730;2023-03-24T11:20:14;6.53;;;2.00;;
47529;SDS011;33272;51.922;7.730;2023-03-24T11:22:53;6.97;;;1.90;;
47529;SDS011;33272;51.922;7.730;2023-03-24T11:25:28;4.57;;;2.10;;
47529;SDS011;33272;51.922;7.730;2023-03-24T11:27:59;6.53;;;2.23;;
47529;SDS011;33272;51.922;7.730;2023-03-24T11:30:28;7.87;;;2.10;;
47529;SDS011;33272;51.922;7.730;2023-03-24T11:33:00;4.67;;;2.17;;
47529;SDS011;33272;51.922;7.730;2023-03-24T11:35:29;6.07;;;1.90;;
47529;SDS011;33272;51.922;7.730;2023-03-24T11:37:57;5.67;;;1.50;;
47529;SDS011;33272;51.922;7.730;2023-03-24T11:40:32;5.97;;;1.93;;
47529;SDS011;33272;51.922;7.730;2023-03-24T11:43:00;5.23;;;1.93;;
47529;SDS011;33272;51.922;7.730;2023-03-24T11:45:33;5.17;;;2.37;;
47529;SDS011;33272;51.922;7.730;2023-03-24T11:48:09;4.80;;;2.03;;
47529;SDS011;33272;51.922;7.730;2023-03-24T11:50:49;4.87;;;1.90;;
47529;SDS011;33272;51.922;7.730;2023-03-24T11:53:18;4.67;;;1.77;;
47529;SDS011;33272;51.922;7.730;2023-03-24T11:55:52;4.87;;;1.70;;
47529;SDS011;33272;51.922;7.730;2023-03-24T11:58:27;8.87;;;2.00;;
47529;SDS011;33272;51.922;7.730;2023-03-24T12:01:03;5.77;;;2.20;;
47529;SDS011;33272;51.922;7.730;2023-03-24T12:03:51;3.17;;;1.70;;
47529;SDS011;33272;51.922;7.730;2023-03-24T12:06:52;3.80;;;1.70;;
47529;SDS011;33272;51.922;7.730;2023-03-24T12:09:32;4.90;;;2.23;;
47529;SDS011;33272;51.922;7.730;2023-03-24T12:12:16;8.63;;;2.10;;
47529;SDS011;33272;51.922;7.730;2023-03-24T12:15:02;5.30;;;1.70;;
47529;SDS011;33272;51.922;7.730;2023-03-24T12:17:55;3.20;;;1.70;;
47529;SDS011;33272;51.922;7.730;2023-03-24T12:20:46;5.43;;;1.80;;
47529;SDS011;33272;51.922;7.730;2023-03-24T12:23:21;2.73;;;1.47;;
47529;SDS011;33272;51.922;7.730;2023-03-24T12:26:01;7.27;;;1.80;;
47529;SDS011;33272;51.922;7.730;2023-03-24T12:28:51;6.73;;;2.10;;
47529;SDS011;33272;51.922;7.730;2023-03-24T12:34:30;3.27;;;1.40;;
47529;SDS011;33272;51.922;7.730;2023-03-24T12:37:27;5.20;;;1.97;;
47529;SDS011;33272;51.922;7.730;2023-03-24T12:40:07;2.30;;;1.27;;
47529;SDS011;33272;51.922;7.730;2023-03-24T12:43:05;4.07;;;1.37;;
47529;SDS011;33272;51.922;7.730;2023-03-24T12:45:44;5.60;;;1.60;;
47529;SDS011;33272;51.922;7.730;2023-03-24T12:51:19;3.97;;;1.43;;
47529;SDS011;33272;51.922;7.730;2023-03-24T12:53:57;3.77;;;1.30;;
47529;SDS011;33272;51.922;7.730;2023-03-24T12:56:38;3.70;;;1.40;;
47529;SDS011;33272;51.922;7.730;2023-03-24T12:59:13;4.23;;;1.70;;
47529;SDS011;33272;51.922;7.730;2023-03-24T13:01:45;3.53;;;1.63;;
47529;SDS011;33272;51.922;7.730;2023-03-24T13:04:18;5.33;;;2.00;;
47529;SDS011;33272;51.922;7.730;2023-03-24T13:06:51;6.23;;;1.90;;
47529;SDS011;33272;51.922;7.730;2023-03-24T13:09:24;5.77;;;1.60;;
47529;SDS011;33272;51.922;7.730;2023-03-24T13:12:05;4.57;;;1.60;;
47529;SDS011;33272;51.922;7.730;2023-03-24T13:14:40;5.27;;;1.90;;
47529;SDS011;33272;51.922;7.730;2023-03-24T13:17:18;6.77;;;1.90;;
47529;SDS011;33272;51.922;7.730;2023-03-24T13:19:52;4.60;;;1.57;;
47529;SDS011;33272;51.922;7.730;2023-03-24T13:22:22;2.87;;;1.40;;
47529;SDS011;33272;51.922;7.730;2023-03-24T13:24:51;3.33;;;1.37;;
47529;SDS011;33272;51.922;7.730;2023-03-24T13:27:22;4.40;;;1.60;;
47529;SDS011;33272;51.922;7.730;2023-03-24T13:30:02;4.17;;;1.30;;
47529;SDS011;33272;51.922;7.730;2023-03-24T13:32:47;3.97;;;1.50;;
47529;SDS011;33272;51.922;7.730;2023-03-24T13:35:20;2.63;;;1.30;;
47529;SDS011;33272;51.922;7.730;2023-03-24T13:38:07;4.40;;;2.10;;
47529;SDS011;33272;51.922;7.730;2023-03-24T13:40:42;5.60;;;1.53;;
47529;SDS011;33272;51.922;7.730;2023-03-24T13:43:16;7.80;;;2.07;;
47529;SDS011;33272;51.922;7.730;2023-03-24T13:45:46;3.53;;;1.50;;
47529;SDS011;33272;51.922;7.730;2023-03-24T13:48:18;3.30;;;1.97;;
47529;SDS011;33272;51.922;7.730;2023-03-24T13:50:55;5.23;;;1.80;;
47529;SDS011;33272;51.922;7.730;2023-03-24T13:53:29;5.90;;;1.80;;
47529;SDS011;33272;51.922;7.730;2023-03-24T13:56:10;4.60;;;1.67;;
47529;SDS011;33272;51.922;7.730;2023-03-24T13:59:04;5.17;;;1.97;;
47529;SDS011;33272;51.922;7.730;2023-03-24T14:01:45;4.60;;;1.83;;
47529;SDS011;33272;51.922;7.730;2023-03-24T14:04:49;5.23;;;1.97;;
47529;SDS011;33272;51.922;7.730;2023-03-24T14:07:30;5.47;;;2.00;;
47529;SDS011;33272;51.922;7.730;2023-03-24T14:10:28;6.77;;;2.27;;
47529;SDS011;33272;51.922;7.730;2023-03-24T14:13:04;3.87;;;1.77;;
47529;SDS011;33272;51.922;7.730;2023-03-24T14:19:23;5.13;;;1.80;;
47529;SDS011;33272;51.922;7.730;2023-03-24T14:27:34;4.07;;;1.57;;
47529;SDS011;33272;51.922;7.730;2023-03-24T14:30:11;4.57;;;1.67;;
47529;SDS011;33272;51.922;7.730;2023-03-24T14:32:46;1.33;;;0.90;;
47529;SDS011;33272;51.922;7.730;2023-03-24T14:35:20;1.07;;;0.97;;
47529;SDS011;33272;51.922;7.730;2023-03-24T14:38:00;3.73;;;1.07;;
47529;SDS011;33272;51.922;7.730;2023-03-24T14:40:32;2.07;;;1.20;;
47529;SDS011;33272;51.922;7.730;2023-03-24T14:43:12;2.43;;;0.80;;
47529;SDS011;33272;51.922;7.730;2023-03-24T14:45:50;1.17;;;0.90;;
47529;SDS011;33272;51.922;7.730;2023-03-24T14:51:15;1.53;;;1.13;;
47529;SDS011;33272;51.922;7.730;2023-03-24T14:54:02;2.03;;;0.93;;
47529;SDS011;33272;51.922;7.730;2023-03-24T14:56:38;2.17;;;1.10;;
47529;SDS011;33272;51.922;7.730;2023-03-24T14:59:09;1.70;;;1.00;;
47529;SDS011;33272;51.922;7.730;2023-03-24T15:01:46;2.27;;;1.20;;
47529;SDS011;33272;51.922;7.730;2023-03-24T15:04:17;2.00;;;0.90;;
47529;SDS011;33272;51.922;7.730;2023-03-24T15:06:44;1.57;;;1.00;;
47529;SDS011;33272;51.922;7.730;2023-03-24T15:09:15;1.00;;;0.90;;
47529;SDS011;33272;51.922;7.730;2023-03-24T15:11:43;0.60;;;0.60;;
47529;SDS011;33272;51.922;7.730;2023-03-24T15:14:17;0.83;;;0.60;;
47529;SDS011;33272;51.922;7.730;2023-03-24T15:16:52;1.97;;;0.70;;
47529;SDS011;33272;51.922;7.730;2023-03-24T15:19:23;2.07;;;0.67;;
47529;SDS011;33272;51.922;7.730;2023-03-24T15:21:56;1.13;;;0.60;;
47529;SDS011;33272;51.922;7.730;2023-03-24T15:24:29;0.93;;;0.77;;
47529;SDS011;33272;51.922;7.730;2023-03-24T15:27:18;0.70;;;0.70;;
47529;SDS011;33272;51.922;7.730;2023-03-24T15:29:54;1.27;;;0.80;;
47529;SDS011;33272;51.922;7.730;2023-03-24T15:32:24;1.23;;;0.93;;
47529;SDS011;33272;51.922;7.730;2023-03-24T15:34:56;1.20;;;1.07;;
47529;SDS011;33272;51.922;7.730;2023-03-24T15:37:29;2.73;;;0.90;;
47529;SDS011;33272;51.922;7.730;2023-03-24T15:40:00;1.10;;;1.00;;
47529;SDS011;33272;51.922;7.730;2023-03-24T15:42:29;4.20;;;2.43;;
47529;SDS011;33272;51.922;7.730;2023-03-24T15:45:05;1.30;;;1.13;;
47529;SDS011;33272;51.922;7.730;2023-03-24T15:47:38;3.73;;;1.00;;
47529;SDS011;33272;51.922;7.730;2023-03-24T15:50:27;2.20;;;1.10;;
47529;SDS011;33272;51.922;7.730;2023-03-24T15:52:57;1.87;;;1.07;;
47529;SDS011;33272;51.922;7.730;2023-03-24T15:55:29;1.80;;;1.00;;